Sweetser, IN (46987)

7:57 PM EST on January 25, 2015 (GMT -0500)
Mississinewa Lake | Change Station
CLOSE
Current Station
Personal Weather Station
Location: LaFontaine, IN
Elevation: 807 ft
Nearby Weather Stations
Active Advisory: Winter Weather Advisory Active Notice: Public Information Statement

Elev 807 ft 40.66 °N, 85.79 °W | Updated 1 second ago

Overcast
Overcast
21.2 °F
Feels Like 21 °F
N
0.0
Wind Variable Wind from NE
Gusts 0.0 mph

Today
High -- | Low -- °F
--% Chance of Precip.
Yesterday
High -- | Low -- °F
Precip. -- in
7:58 AM 5:52 PM
Waxing Crescent, 37% visible
Pressure 29.82 in
Visibility 3.0 miles
Clouds Scattered Clouds 1100 ft
Mostly Cloudy 3000 ft
Overcast 3400 ft
Windchill 21 °F
Dew Point 20 °F
Humidity 93%
Rainfall 0.15 in
Snow Depth Not available.
UV 0 out of 12
Pollen .10 out of 12
Air Quality Not available.
Flu Activity Not available.
METAR KMZZ 260035Z AUTO 06016G27KT 3SM -SN SCT011 BKN030 OVC034 M06/M07 A2982 RMK AO2 T10561073

More Conditions Fewer Conditions

Pressure 29.82 in
Visibility 3.0 miles
Clouds Scattered Clouds 1100 ft
Mostly Cloudy 3000 ft
Overcast 3400 ft
Windchill 21 °F
Dew Point 20 °F
Humidity 93%
Rainfall 0.15 in
Snow Depth Not available.
UV 0 out of 12
Pollen .10 out of 12
Air Quality Not available.
Flu Activity Not available.
METAR KMZZ 260035Z AUTO 06016G27KT 3SM -SN SCT011 BKN030 OVC034 M06/M07 A2982 RMK AO2 T10561073

More Conditions Fewer Conditions

10-Day Weather Forecast

Almanac

Astronomy

Jan. 25, 2015 Rise Set
Actual Time
Civil Twilight
Nautical Twilight
Astronomical Twilight
Moon
Length of Visible Light
Length of Day
Tomorrow will be .
, % of the Moon is Illuminated

Today's Extremes

State Highs State Lows

Community

WunderPhotos

Upload Photos

1,790,027 photos uploaded!

WunderBlogs® & News

Nearby

Air Quality

  Air Quality AQ Index Pollutant
Not available.

Snow Depth

Station Depth Elevation

Earthquake Activity

City Distance Mag. Time & Date
Minimum magnitude displayed is 2.5.

Coastal Water Temperatures

Place Temperature

Nearby Weather Stations